Time;durP1;ratioP1;P1;durP2;ratioP2;P2;SDS_P1;SDS_P2;PMS_P1;PMS_P2;Temp;Humidity;BMP_temperature;BMP_pressure;BME280_temperature;BME280_humidity;BME280_pressure;Samples;Min_cycle;Max_cycle;Signal;HPM_P1;HPM_P2
2021/05/07 00:00:42;;;;;;;3.63;1.90;;;;;;;9.06;94.53;99481.84;648179;221;24771;-79
2021/05/07 00:03:09;;;;;;;1.67;1.57;;;;;;;8.95;94.57;99487.28;631833;225;24817;-78
2021/05/07 00:05:38;;;;;;;1.90;1.60;;;;;;;8.84;95.24;99494.82;635480;225;24858;-79
2021/05/07 00:08:06;;;;;;;2.17;2.00;;;;;;;8.75;95.53;99497.86;635459;225;24800;-78
2021/05/07 00:10:34;;;;;;;1.90;1.70;;;;;;;8.57;96.38;99497.86;637155;225;24779;-79
2021/05/07 00:13:02;;;;;;;2.37;2.17;;;;;;;8.66;96.65;99500.53;639545;221;24824;-79
2021/05/07 00:15:30;;;;;;;2.33;2.13;;;;;;;8.90;96.51;99498.94;640314;221;24792;-80
2021/05/07 00:17:58;;;;;;;2.43;2.23;;;;;;;8.83;96.44;99496.59;633446;225;24846;-79
2021/05/07 00:20:26;;;;;;;2.70;2.50;;;;;;;8.73;96.18;99501.57;647725;221;27974;-79
2021/05/07 00:22:54;;;;;;;2.87;2.67;;;;;;;8.93;95.27;99503.00;650867;220;24737;-79
2021/05/07 00:25:22;;;;;;;2.43;2.23;;;;;;;9.07;95.36;99510.70;650829;220;24747;-79
2021/05/07 00:27:50;;;;;;;2.60;2.40;;;;;;;9.06;95.67;99503.89;640332;223;24817;-79
2021/05/07 00:30:19;;;;;;;2.40;2.20;;;;;;;9.47;93.31;99499.73;642959;220;43106;-78
2021/05/07 00:32:49;;;;;;;2.60;2.40;;;;;;;9.19;93.95;99498.63;645920;222;24831;-79
2021/05/07 00:35:17;;;;;;;2.70;2.50;;;;;;;9.09;94.23;99499.20;639932;221;27989;-79
2021/05/07 00:37:46;;;;;;;3.07;2.80;;;;;;;9.15;93.85;99506.88;643787;221;24805;-79
2021/05/07 00:40:14;;;;;;;3.23;2.83;;;;;;;9.05;95.24;99510.05;643676;221;28028;-79
2021/05/07 00:42:42;;;;;;;2.70;2.50;;;;;;;9.10;94.65;99508.61;647827;220;24754;-79
2021/05/07 00:45:11;;;;;;;3.20;2.90;;;;;;;8.73;96.52;99514.05;633154;225;24799;-80
2021/05/07 00:47:39;;;;;;;3.60;3.20;;;;;;;8.71;96.62;99511.25;639014;225;24762;-81
2021/05/07 00:50:07;;;;;;;3.37;3.07;;;;;;;8.58;98.57;99524.59;650784;219;24801;-78
2021/05/07 00:52:37;;;;;;;3.10;2.90;;;;;;;8.45;98.61;99524.99;648991;220;24742;-79
2021/05/07 00:55:03;;;;;;;3.47;3.17;;;;;;;8.41;99.34;99531.41;647892;220;24739;-79
2021/05/07 00:57:32;;;;;;;3.30;3.10;;;;;;;8.39;99.36;99535.94;638512;223;24794;-80
2021/05/07 01:00:00;;;;;;;3.40;3.20;;;;;;;8.36;100.00;99534.13;650592;220;24745;-80
2021/05/07 01:02:28;;;;;;;3.47;3.17;;;;;;;8.37;100.00;99540.94;650009;220;24747;-79
2021/05/07 01:04:56;;;;;;;4.23;3.37;;;;;;;8.50;100.00;99537.50;636453;225;29023;-79
2021/05/07 01:07:24;;;;;;;4.63;3.50;;;;;;;8.33;99.84;99541.69;638722;223;24803;-79
2021/05/07 01:09:52;;;;;;;3.40;3.10;;;;;;;8.26;100.00;99535.45;638714;223;24820;-79
2021/05/07 01:12:23;;;;;;;3.87;3.57;;;;;;;8.36;99.75;99530.24;636417;225;24795;-78
2021/05/07 01:15:01;;;;;;;4.20;3.50;;;;;;;8.37;99.39;99531.38;647595;221;24772;-78
2021/05/07 01:17:29;;;;;;;4.00;3.40;;;;;;;8.30;98.40;99531.14;647440;221;24763;-81
2021/05/07 01:19:56;;;;;;;3.70;3.30;;;;;;;8.19;98.89;99534.42;634708;225;24819;-81
2021/05/07 01:22:24;;;;;;;3.83;3.53;;;;;;;8.16;99.22;99530.33;633838;225;25020;-80
2021/05/07 01:24:52;;;;;;;4.33;3.93;;;;;;;8.19;98.12;99528.77;649473;220;24729;-78
2021/05/07 01:27:22;;;;;;;4.83;3.20;;;;;;;8.27;97.85;99533.19;637376;224;24833;-79
2021/05/07 01:29:50;;;;;;;3.57;3.27;;;;;;;8.24;97.96;99536.08;631900;225;24820;-81
2021/05/07 01:32:18;;;;;;;3.87;3.50;;;;;;;8.13;97.84;99538.39;648616;220;24803;-81
2021/05/07 01:34:46;;;;;;;4.57;4.17;;;;;;;8.22;97.47;99540.59;636614;225;24902;-81
2021/05/07 01:37:13;;;;;;;4.23;3.93;;;;;;;8.43;97.21;99539.03;644448;220;24760;-79
2021/05/07 01:39:41;;;;;;;4.67;4.17;;;;;;;8.29;97.94;99541.14;635732;221;24810;-79
2021/05/07 01:42:09;;;;;;;4.90;4.13;;;;;;;8.49;98.05;99523.73;633638;222;24836;-80
2021/05/07 01:44:37;;;;;;;6.20;4.70;;;;;;;8.63;96.06;99528.86;638284;222;25151;-78
2021/05/07 01:47:05;;;;;;;5.40;4.90;;;;;;;8.71;95.72;99525.02;634483;225;24783;-79
2021/05/07 01:49:33;;;;;;;6.37;5.67;;;;;;;9.00;94.43;99522.64;631430;225;32533;-78
2021/05/07 01:52:01;;;;;;;6.20;5.60;;;;;;;8.87;94.28;99520.47;636522;225;24804;-79
2021/05/07 01:54:28;;;;;;;5.80;5.20;;;;;;;8.70;94.93;99526.47;646714;221;24730;-78
2021/05/07 01:56:56;;;;;;;6.20;5.07;;;;;;;8.75;94.19;99523.78;637170;225;24810;-79
2021/05/07 01:59:24;;;;;;;6.63;5.30;;;;;;;8.81;94.07;99517.98;650470;218;25065;-79
2021/05/07 02:01:53;;;;;;;6.13;5.53;;;;;;;8.63;94.34;99515.91;651235;220;24752;-79
2021/05/07 02:04:22;;;;;;;5.63;5.13;;;;;;;8.63;94.50;99518.02;651681;220;24733;-79
2021/05/07 02:06:52;;;;;;;7.10;6.10;;;;;;;8.73;94.68;99521.83;633484;224;24816;-79
2021/05/07 02:09:20;;;;;;;7.97;6.60;;;;;;;8.74;93.76;99530.41;649261;221;26963;-79
2021/05/07 02:11:48;;;;;;;6.90;5.90;;;;;;;8.79;93.49;99528.98;647995;220;24768;-80
2021/05/07 02:14:16;;;;;;;8.33;6.57;;;;;;;8.61;93.92;99534.69;638847;225;24837;-79
2021/05/07 02:16:44;;;;;;;7.60;6.60;;;;;;;8.51;93.82;99544.30;638127;224;28033;-78
2021/05/07 02:19:12;;;;;;;7.60;6.80;;;;;;;8.62;93.47;99545.38;642789;220;32450;-79
2021/05/07 02:21:40;;;;;;;8.20;7.40;;;;;;;8.96;92.88;99535.10;632430;225;33339;-79
2021/05/07 02:24:11;;;;;;;7.90;7.00;;;;;;;9.13;91.45;99533.42;631115;225;32846;-79
2021/05/07 02:26:37;;;;;;;8.10;6.37;;;;;;;8.81;93.37;99538.72;650390;221;23676;-79
2021/05/07 02:29:07;;;;;;;8.20;7.40;;;;;;;8.44;94.75;99541.47;650183;220;24759;-79
2021/05/07 02:31:35;;;;;;;6.73;6.00;;;;;;;8.44;96.17;99548.44;638017;222;24778;-79
2021/05/07 02:34:04;;;;;;;8.17;6.77;;;;;;;8.19;97.52;99549.97;649588;220;24730;-79
2021/05/07 02:36:32;;;;;;;7.80;6.67;;;;;;;8.11;97.33;99549.38;650205;220;26882;-78
2021/05/07 02:39:00;;;;;;;8.17;5.93;;;;;;;8.07;98.36;99546.76;648594;220;24747;-79
2021/05/07 02:41:29;;;;;;;6.47;5.63;;;;;;;8.01;97.62;99553.31;650568;220;24754;-80
2021/05/07 02:43:56;;;;;;;6.70;5.37;;;;;;;8.06;97.80;99561.96;634050;225;24843;-79
2021/05/07 02:46:24;;;;;;;5.90;5.30;;;;;;;7.90;97.63;99562.59;650730;220;24776;-78
2021/05/07 02:48:53;;;;;;;6.13;4.87;;;;;;;8.03;96.96;99556.60;637250;225;32326;-79
2021/05/07 02:51:21;;;;;;;5.50;5.00;;;;;;;7.94;97.27;99551.47;642415;221;24788;-79
2021/05/07 02:53:49;;;;;;;4.97;4.10;;;;;;;7.95;96.66;99560.38;649685;221;26283;-78
2021/05/07 02:56:18;;;;;;;4.83;4.30;;;;;;;8.01;95.90;99555.09;633330;225;24804;-79
2021/05/07 02:58:46;;;;;;;5.20;4.70;;;;;;;7.96;95.78;99552.95;650830;220;24711;-81
2021/05/07 03:01:13;;;;;;;4.23;3.83;;;;;;;7.70;95.35;99563.15;648862;220;24763;-81
2021/05/07 03:03:41;;;;;;;5.00;4.17;;;;;;;7.83;95.84;99564.59;644864;220;43341;-80
2021/05/07 03:06:09;;;;;;;5.20;4.10;;;;;;;7.79;96.38;99567.14;648411;220;24820;-81
2021/05/07 03:08:37;;;;;;;6.00;4.83;;;;;;;7.74;95.53;99578.75;635004;225;24870;-81
2021/05/07 03:11:05;;;;;;;4.43;3.97;;;;;;;7.60;96.07;99587.42;635524;223;24879;-81
2021/05/07 03:13:33;;;;;;;5.10;4.20;;;;;;;7.50;97.51;99595.23;650865;220;24761;-81
2021/05/07 03:16:01;;;;;;;4.93;4.43;;;;;;;7.49;98.04;99601.38;651579;220;24701;-79
2021/05/07 03:18:29;;;;;;;5.07;3.87;;;;;;;7.45;96.72;99599.52;653147;220;24743;-79
2021/05/07 03:20:57;;;;;;;3.80;3.50;;;;;;;7.40;97.55;99593.14;651155;220;24749;-80
2021/05/07 03:23:25;;;;;;;5.17;4.67;;;;;;;7.49;98.24;99601.85;646205;221;24822;-80
2021/05/07 03:25:53;;;;;;;5.50;4.63;;;;;;;7.55;97.62;99606.45;645313;220;25766;-80
2021/05/07 03:28:21;;;;;;;5.10;4.23;;;;;;;7.50;97.99;99603.48;636334;225;25264;-80
2021/05/07 03:30:49;;;;;;;4.27;3.50;;;;;;;7.59;97.06;99596.96;649185;220;24743;-80
2021/05/07 03:33:17;;;;;;;5.50;4.50;;;;;;;7.62;97.87;99608.83;635989;224;25184;-80
2021/05/07 03:35:45;;;;;;;5.50;4.40;;;;;;;7.67;96.55;99607.44;637111;225;24805;-80
2021/05/07 03:38:13;;;;;;;5.27;4.77;;;;;;;7.85;95.61;99606.69;642900;221;43058;-80
2021/05/07 03:40:41;;;;;;;5.60;4.03;;;;;;;7.68;95.70;99616.83;637294;225;24834;-80
2021/05/07 03:43:10;;;;;;;5.00;4.50;;;;;;;7.68;96.49;99622.00;634401;222;24767;-80
2021/05/07 03:45:38;;;;;;;6.77;4.13;;;;;;;7.83;96.34;99615.08;649919;221;24764;-79
2021/05/07 03:48:15;;;;;;;4.93;4.40;;;;;;;7.78;95.78;99617.28;632399;225;24854;-79
2021/05/07 03:50:43;;;;;;;6.40;4.43;;;;;;;7.84;95.56;99614.93;632718;225;24798;-80
2021/05/07 03:53:11;;;;;;;5.33;4.83;;;;;;;7.78;95.31;99618.58;635526;225;29086;-80
2021/05/07 03:55:39;;;;;;;4.80;4.40;;;;;;;7.69;95.44;99629.29;635822;225;25042;-80
2021/05/07 03:58:10;;;;;;;9.30;4.50;;;;;;;7.64;95.88;99631.50;632847;225;24782;-80
2021/05/07 04:00:39;;;;;;;7.43;4.50;;;;;;;7.58;96.59;99643.69;637800;225;24803;-80
2021/05/07 04:03:07;;;;;;;6.87;5.03;;;;;;;7.61;96.70;99645.53;637412;225;24799;-80
2021/05/07 04:05:39;;;;;;;6.30;4.60;;;;;;;7.45;97.27;99655.63;637121;223;24783;-80
2021/05/07 04:08:11;;;;;;;5.40;4.80;;;;;;;7.48;97.33;99652.78;637053;225;27018;-80
2021/05/07 04:10:39;;;;;;;6.60;5.10;;;;;;;7.39;97.79;99657.48;634995;225;24795;-80
2021/05/07 04:15:39;;;;;;;6.17;4.60;;;;;;;7.31;98.97;99666.39;633943;225;24832;-79
2021/05/07 04:18:07;;;;;;;7.83;5.63;;;;;;;7.39;98.16;99670.41;634466;225;24768;-80
2021/05/07 04:20:37;;;;;;;8.53;6.57;;;;;;;7.50;98.22;99674.16;649139;220;24721;-80
2021/05/07 04:23:05;;;;;;;7.20;5.37;;;;;;;7.47;97.68;99691.25;637198;224;24820;-80
2021/05/07 04:25:33;;;;;;;9.10;5.90;;;;;;;7.52;97.83;99693.41;648909;221;24767;-80
2021/05/07 04:28:01;;;;;;;6.97;5.77;;;;;;;7.63;97.57;99700.55;640851;224;24824;-80
2021/05/07 04:30:28;;;;;;;8.57;6.03;;;;;;;7.66;96.83;99710.63;649783;220;24765;-79
2021/05/07 04:32:56;;;;;;;6.83;5.37;;;;;;;7.64;96.53;99715.60;633951;225;24934;-80
2021/05/07 04:35:24;;;;;;;9.20;6.70;;;;;;;7.68;96.70;99710.48;648700;221;24827;-83
2021/05/07 04:37:52;;;;;;;8.60;6.87;;;;;;;7.90;95.45;99715.83;645040;220;34426;-80
2021/05/07 04:40:20;;;;;;;7.75;6.95;;;;;;;8.24;93.93;99716.92;629844;225;32611;-80
2021/05/07 04:42:48;;;;;;;9.63;6.33;;;;;;;8.04;95.23;99715.38;637651;225;23687;-78
2021/05/07 04:45:16;;;;;;;8.67;6.30;;;;;;;8.19;95.10;99726.91;650533;221;25880;-80
2021/05/07 04:47:46;;;;;;;9.50;6.60;;;;;;;7.91;95.53;99727.81;637908;225;24757;-81
2021/05/07 04:50:18;;;;;;;7.50;6.70;;;;;;;8.13;94.80;99735.23;648394;221;26832;-80
2021/05/07 04:52:46;;;;;;;7.53;6.40;;;;;;;8.17;95.24;99736.60;639487;224;24784;-74
2021/05/07 04:55:14;;;;;;;7.53;6.50;;;;;;;8.10;95.72;99739.88;641666;221;24807;-75
2021/05/07 04:57:42;;;;;;;8.83;6.90;;;;;;;8.07;94.84;99747.46;644680;221;24783;-80
2021/05/07 05:00:11;;;;;;;10.47;6.13;;;;;;;7.79;96.67;99753.52;633152;225;24794;-80
2021/05/07 05:02:39;;;;;;;6.70;6.00;;;;;;;7.92;95.15;99754.86;648021;221;24777;-80
2021/05/07 05:05:08;;;;;;;10.27;7.20;;;;;;;7.95;95.85;99753.75;650552;220;24721;-80
2021/05/07 05:07:37;;;;;;;12.70;6.73;;;;;;;8.06;95.87;99754.89;639232;221;25908;-81
2021/05/07 05:10:05;;;;;;;7.17;5.53;;;;;;;8.16;94.71;99753.55;642673;221;24809;-81
2021/05/07 05:12:33;;;;;;;7.27;5.60;;;;;;;8.21;94.65;99762.55;642775;221;25115;-81
2021/05/07 05:15:01;;;;;;;8.60;7.10;;;;;;;8.82;92.25;99758.15;629010;225;32607;-80
2021/05/07 05:17:30;;;;;;;8.30;7.47;;;;;;;8.56;92.90;99761.08;635140;226;24891;-80
2021/05/07 05:19:58;;;;;;;8.60;6.60;;;;;;;8.57;92.45;99766.59;648951;221;24787;-81
2021/05/07 05:22:26;;;;;;;7.90;5.40;;;;;;;8.79;91.79;99765.41;637268;225;24876;-80
2021/05/07 05:24:57;;;;;;;7.10;5.87;;;;;;;8.63;91.76;99776.41;646686;221;24783;-80
2021/05/07 05:27:24;;;;;;;9.30;5.90;;;;;;;8.85;91.81;99777.30;649075;220;24739;-80
2021/05/07 05:29:52;;;;;;;10.60;6.23;;;;;;;8.64;93.24;99785.81;636745;225;24820;-80
2021/05/07 05:32:20;;;;;;;7.03;6.30;;;;;;;8.59;92.01;99786.73;636637;225;24796;-80
2021/05/07 05:34:49;;;;;;;9.10;6.73;;;;;;;8.78;90.80;99788.41;647405;219;24748;-81
2021/05/07 05:37:16;;;;;;;7.20;6.50;;;;;;;8.69;89.73;99792.67;635168;224;34587;-80
2021/05/07 05:39:44;;;;;;;8.15;6.90;;;;;;;8.75;90.43;99795.19;639632;221;32672;-81
2021/05/07 05:42:12;;;;;;;7.12;6.42;;;;;;;9.15;88.30;99790.47;633704;222;32574;-80
2021/05/07 05:44:40;;;;;;;6.63;5.90;;;;;;;8.98;88.98;99795.59;636174;225;23722;-81
2021/05/07 05:47:09;;;;;;;5.93;5.33;;;;;;;8.98;88.90;99801.59;636976;225;24823;-80
2021/05/07 05:49:38;;;;;;;9.00;6.20;;;;;;;8.86;89.00;99810.05;636467;225;24802;-81
2021/05/07 05:52:06;;;;;;;7.23;5.83;;;;;;;8.74;89.20;99812.52;638281;225;24778;-80
2021/05/07 05:54:34;;;;;;;8.23;5.70;;;;;;;8.82;88.42;99810.01;635878;225;24827;-81
2021/05/07 05:57:02;;;;;;;6.10;5.50;;;;;;;8.95;89.00;99821.83;634799;225;24824;-81
2021/05/07 05:59:30;;;;;;;6.37;5.57;;;;;;;8.90;89.41;99822.27;646224;221;24760;-80
2021/05/07 06:01:58;;;;;;;5.10;4.67;;;;;;;9.22;87.75;99817.44;649420;221;24803;-81
2021/05/07 06:04:25;;;;;;;5.67;5.10;;;;;;;8.93;88.89;99817.60;633574;225;24839;-80
2021/05/07 06:06:54;;;;;;;5.40;4.90;;;;;;;9.38;88.45;99816.78;646763;221;24739;-81
2021/05/07 06:09:21;;;;;;;4.93;4.43;;;;;;;9.70;87.55;99818.86;637412;225;24806;-81
2021/05/07 06:11:49;;;;;;;4.80;4.30;;;;;;;9.80;85.59;99811.00;635809;223;24804;-80
2021/05/07 06:14:17;;;;;;;5.20;4.70;;;;;;;9.29;84.31;99809.91;649206;221;24764;-81
2021/05/07 06:16:45;;;;;;;5.57;5.07;;;;;;;9.36;84.95;99811.41;635748;225;24803;-81
2021/05/07 06:19:13;;;;;;;5.10;4.60;;;;;;;9.20;84.15;99819.37;636054;225;24817;-81
2021/05/07 06:21:41;;;;;;;7.00;4.50;;;;;;;9.63;84.15;99824.81;646129;221;26831;-80
2021/05/07 06:24:10;;;;;;;5.37;4.83;;;;;;;10.05;83.03;99824.52;649292;221;24777;-81
2021/05/07 06:26:39;;;;;;;6.97;5.00;;;;;;;10.33;79.52;99823.92;641677;221;32325;-80
2021/05/07 06:29:08;;;;;;;5.33;4.83;;;;;;;10.17;80.34;99821.67;636720;225;23685;-81
2021/05/07 06:31:36;;;;;;;5.47;4.43;;;;;;;10.02;81.06;99822.70;641239;223;26953;-72
2021/05/07 06:34:04;;;;;;;5.60;4.63;;;;;;;9.47;80.61;99822.41;636105;225;24863;-72
2021/05/07 06:36:32;;;;;;;7.40;5.27;;;;;;;9.46;80.46;99824.67;636737;225;24772;-71
2021/05/07 06:39:00;;;;;;;7.50;5.10;;;;;;;9.51;82.60;99844.98;637152;221;24782;-73
2021/05/07 06:41:28;;;;;;;4.73;4.33;;;;;;;9.76;82.44;99840.36;634037;226;24798;-72
2021/05/07 06:43:55;;;;;;;6.00;5.40;;;;;;;9.53;80.37;99838.67;637125;225;25552;-71
2021/05/07 06:46:23;;;;;;;6.65;5.65;;;;;;;9.48;79.14;99827.92;646472;218;32417;-71
2021/05/07 06:48:51;;;;;;;6.50;5.70;;;;;;;9.45;79.20;99836.02;651394;220;24160;-72
2021/05/07 06:51:19;;;;;;;6.33;5.17;;;;;;;9.56;79.16;99840.63;650477;220;24766;-72
2021/05/07 06:53:47;;;;;;;7.00;5.20;;;;;;;9.74;78.99;99840.99;651685;220;24724;-72
2021/05/07 06:56:19;;;;;;;9.90;5.60;;;;;;;9.69;79.23;99845.80;637827;224;24805;-71
2021/05/07 06:58:43;;;;;;;7.10;5.60;;;;;;;9.50;78.27;99840.75;642461;221;32467;-72
2021/05/07 07:01:11;;;;;;;7.53;5.80;;;;;;;9.29;77.33;99842.79;633509;225;25804;-71
2021/05/07 07:03:39;;;;;;;7.87;6.07;;;;;;;9.33;79.45;99851.94;640164;223;28011;-72
2021/05/07 07:06:07;;;;;;;8.00;5.57;;;;;;;9.25;78.42;99850.06;647351;221;24769;-72
2021/05/07 07:08:35;;;;;;;7.83;5.77;;;;;;;9.21;78.82;99861.70;631383;225;32545;-72
2021/05/07 07:11:03;;;;;;;6.10;5.00;;;;;;;9.53;77.68;99859.44;643739;221;24838;-71
2021/05/07 07:13:31;;;;;;;7.73;5.17;;;;;;;9.95;77.64;99858.84;647278;220;24753;-72
2021/05/07 07:15:59;;;;;;;6.77;5.60;;;;;;;9.44;75.19;99855.15;637799;225;25022;-72
2021/05/07 07:18:27;;;;;;;5.97;5.37;;;;;;;9.45;75.28;99851.59;644177;220;24943;-72
2021/05/07 07:20:55;;;;;;;8.63;5.45;;;;;;;10.32;75.21;99863.06;634343;221;43466;-73
2021/05/07 07:23:23;;;;;;;7.83;5.47;;;;;;;10.45;72.67;99856.17;624984;225;24839;-72
2021/05/07 07:25:51;;;;;;;8.67;5.70;;;;;;;10.11;73.07;99855.56;637579;221;24829;-72
2021/05/07 07:28:19;;;;;;;8.93;5.90;;;;;;;10.03;73.43;99862.83;648135;221;25804;-72
2021/05/07 07:30:46;;;;;;;6.03;5.40;;;;;;;10.83;72.73;99865.30;637580;224;24779;-72
2021/05/07 07:33:14;;;;;;;7.30;4.53;;;;;;;10.85;71.90;99861.59;636950;225;24801;-72
2021/05/07 07:35:42;;;;;;;6.27;4.83;;;;;;;11.43;71.28;99862.61;636901;225;24802;-72
2021/05/07 07:38:10;;;;;;;5.90;5.10;;;;;;;11.38;71.03;99868.77;632599;225;24839;-72
2021/05/07 07:40:38;;;;;;;7.80;4.83;;;;;;;10.96;69.33;99863.90;645056;221;25040;-71
2021/05/07 07:43:06;;;;;;;6.20;5.60;;;;;;;11.34;71.04;99868.27;630425;225;24848;-71
2021/05/07 07:45:34;;;;;;;5.50;4.70;;;;;;;11.04;71.77;99880.05;631509;225;24846;-72
2021/05/07 07:48:02;;;;;;;6.90;5.30;;;;;;;10.31;72.60;99884.83;642224;220;33139;-72
2021/05/07 07:50:30;;;;;;;5.20;4.60;;;;;;;9.96;74.05;99890.84;633223;225;24891;-71
2021/05/07 07:52:57;;;;;;;8.30;4.53;;;;;;;10.61;72.02;99890.88;644588;220;33404;-71
2021/05/07 07:55:25;;;;;;;5.60;4.57;;;;;;;10.28;71.91;99889.86;636164;224;24887;-71
2021/05/07 07:57:53;;;;;;;6.20;3.87;;;;;;;10.51;73.24;99900.56;647490;220;24723;-71
2021/05/07 08:00:21;;;;;;;5.87;5.10;;;;;;;11.42;74.20;99914.36;637627;222;24796;-72
2021/05/07 08:02:49;;;;;;;4.83;4.10;;;;;;;11.19;67.40;99903.20;638877;222;24809;-72
2021/05/07 08:05:18;;;;;;;7.37;4.10;;;;;;;10.78;66.70;99894.39;644661;220;24805;-72
2021/05/07 08:07:46;;;;;;;3.87;3.45;;;;;;;10.69;67.15;99884.89;637480;221;32643;-72
2021/05/07 08:10:15;;;;;;;4.33;3.90;;;;;;;10.94;65.42;99890.56;645486;221;24012;-72
2021/05/07 08:12:42;;;;;;;5.40;4.03;;;;;;;10.97;63.83;99893.34;635019;221;32746;-73
2021/05/07 08:15:10;;;;;;;5.27;4.13;;;;;;;10.94;61.98;99878.04;637259;221;23691;-72
2021/05/07 08:17:38;;;;;;;4.53;3.80;;;;;;;11.09;65.38;99889.48;648750;221;24820;-72
2021/05/07 08:20:07;;;;;;;3.87;3.47;;;;;;;11.30;62.84;99893.00;637069;223;28008;-72
2021/05/07 08:22:35;;;;;;;7.40;3.77;;;;;;;11.58;62.35;99885.76;635353;225;24816;-72
2021/05/07 08:25:04;;;;;;;3.97;3.57;;;;;;;11.68;61.39;99886.89;648308;220;27743;-72
2021/05/07 08:27:32;;;;;;;3.50;3.20;;;;;;;11.42;62.04;99890.93;637184;224;24855;-72
2021/05/07 08:29:59;;;;;;;4.90;3.53;;;;;;;11.66;62.95;99887.06;636232;225;24796;-72
2021/05/07 08:32:27;;;;;;;3.40;3.10;;;;;;;11.39;61.65;99892.04;636104;225;25958;-72
2021/05/07 08:34:55;;;;;;;9.07;3.90;;;;;;;11.61;63.42;99901.06;632727;224;24834;-73
2021/05/07 08:37:23;;;;;;;4.13;3.47;;;;;;;11.78;62.15;99900.11;636303;225;24819;-72
2021/05/07 08:39:51;;;;;;;5.83;3.90;;;;;;;11.59;58.62;99899.11;630437;225;33791;-72
2021/05/07 08:42:20;;;;;;;3.30;3.00;;;;;;;11.86;60.79;99902.77;641546;222;27920;-72
2021/05/07 08:44:47;;;;;;;3.93;3.47;;;;;;;12.09;59.61;99911.25;643496;221;24829;-72
2021/05/07 08:47:18;;;;;;;4.77;3.40;;;;;;;12.21;58.21;99913.86;636117;225;28013;-72
2021/05/07 08:49:48;;;;;;;5.10;3.97;;;;;;;12.24;58.53;99908.31;650518;220;24737;-72
2021/05/07 08:52:16;;;;;;;3.97;3.60;;;;;;;12.46;57.36;99903.75;638802;225;24851;-72
2021/05/07 08:54:44;;;;;;;3.80;3.40;;;;;;;12.60;56.98;99907.97;633525;225;24868;-73
2021/05/07 08:57:12;;;;;;;4.60;3.10;;;;;;;12.79;56.27;99913.62;650458;221;24856;-72
2021/05/07 08:59:40;;;;;;;4.95;3.65;;;;;;;12.25;57.90;99916.98;631780;225;43338;-72
2021/05/07 09:02:08;;;;;;;6.10;4.20;;;;;;;11.89;62.29;99934.20;633744;225;23874;-73
2021/05/07 09:04:35;;;;;;;4.20;3.80;;;;;;;11.71;59.32;99942.13;648087;220;23743;-72
2021/05/07 09:07:11;;;;;;;3.43;3.13;;;;;;;11.93;60.88;99946.42;637253;225;24828;-72
2021/05/07 09:09:48;;;;;;;6.73;3.80;;;;;;;11.50;61.65;99946.93;646506;220;25012;-72
2021/05/07 09:12:23;;;;;;;3.97;3.33;;;;;;;11.99;60.84;99955.73;639739;223;24778;-72
2021/05/07 09:14:51;;;;;;;4.37;3.40;;;;;;;12.21;58.89;99949.55;639569;223;24994;-72
2021/05/07 09:17:20;;;;;;;3.55;3.25;;;;;;;12.64;59.15;99940.08;629386;225;32689;-72
2021/05/07 09:19:48;;;;;;;4.10;3.37;;;;;;;12.08;59.19;99944.81;636362;225;22702;-72
2021/05/07 09:22:22;;;;;;;3.40;3.10;;;;;;;12.19;62.61;99957.53;638025;225;26947;-72
2021/05/07 09:24:50;;;;;;;5.47;3.33;;;;;;;12.82;60.37;99958.18;634747;225;24810;-72
2021/05/07 09:27:22;;;;;;;5.20;4.20;;;;;;;12.48;60.14;99961.78;636125;225;24811;-71
2021/05/07 09:29:50;;;;;;;3.92;3.52;;;;;;;12.24;59.10;99962.25;646461;220;32588;-72
2021/05/07 09:32:18;;;;;;;4.57;3.67;;;;;;;12.49;54.22;99949.55;639305;225;23899;-71
2021/05/07 09:34:45;;;;;;;4.40;3.20;;;;;;;12.32;54.98;99955.27;637007;225;25918;-72
2021/05/07 09:37:14;;;;;;;5.17;3.83;;;;;;;11.36;54.80;99941.83;650574;218;24808;-72
2021/05/07 09:39:42;;;;;;;5.27;4.10;;;;;;;11.72;58.74;99958.08;636263;225;24860;-72
2021/05/07 09:42:10;;;;;;;8.33;3.80;;;;;;;12.01;56.50;99969.41;635258;221;24789;-72
2021/05/07 09:44:38;;;;;;;7.07;4.20;;;;;;;11.76;57.11;99976.32;641507;221;24866;-72
2021/05/07 09:47:13;;;;;;;4.53;3.98;;;;;;;11.67;57.54;99979.86;643105;221;32770;-72
2021/05/07 09:49:41;;;;;;;7.58;4.33;;;;;;;11.56;59.11;99983.59;633255;225;32574;-72
2021/05/07 09:52:09;;;;;;;7.30;4.10;;;;;;;11.48;59.32;99992.66;638281;223;23880;-72
2021/05/07 09:54:38;;;;;;;5.70;3.90;;;;;;;11.36;58.10;99991.79;634960;225;24782;-72
2021/05/07 09:57:06;;;;;;;6.30;4.13;;;;;;;11.91;58.38;99992.68;647911;221;24760;-72
2021/05/07 09:59:33;;;;;;;4.60;3.90;;;;;;;11.94;58.64;99995.77;634178;225;24855;-72
2021/05/07 10:02:02;;;;;;;6.93;4.30;;;;;;;12.30;58.01;100002.05;648963;221;24994;-72
2021/05/07 10:04:29;;;;;;;5.55;4.53;;;;;;;12.05;58.34;100009.00;642671;221;32409;-71
2021/05/07 10:06:57;;;;;;;6.57;4.20;;;;;;;12.21;57.62;100001.20;647629;221;23638;-72
2021/05/07 10:09:25;;;;;;;5.20;3.70;;;;;;;12.36;56.23;99999.59;637367;225;24759;-72
2021/05/07 10:11:53;;;;;;;5.37;3.83;;;;;;;12.67;53.66;100002.89;641242;223;24885;-72
2021/05/07 10:14:21;;;;;;;5.43;3.80;;;;;;;13.38;57.09;99998.22;637015;224;24747;-71
2021/05/07 10:16:49;;;;;;;4.50;3.30;;;;;;;13.02;54.01;99995.16;638359;223;24777;-72
2021/05/07 10:19:17;;;;;;;6.57;3.83;;;;;;;12.64;55.97;99995.36;632144;225;24811;-72
2021/05/07 10:21:44;;;;;;;5.77;3.63;;;;;;;12.45;53.60;100001.23;635504;224;26036;-72
2021/05/07 10:24:12;;;;;;;3.37;3.07;;;;;;;12.85;55.63;99994.88;637600;225;23897;-72
2021/05/07 10:26:40;;;;;;;4.87;3.77;;;;;;;12.99;55.78;99983.27;643349;220;32401;-72
2021/05/07 10:29:15;;;;;;;7.30;3.83;;;;;;;12.85;53.97;99979.21;637943;225;23655;-73
2021/05/07 10:31:47;;;;;;;4.47;3.30;;;;;;;13.29;54.10;99993.98;635305;225;24801;-72
2021/05/07 10:34:15;;;;;;;5.70;3.53;;;;;;;12.96;53.34;99992.73;632964;225;24805;-72
2021/05/07 10:36:43;;;;;;;4.80;3.80;;;;;;;13.15;54.40;99984.20;635179;225;24773;-72
2021/05/07 10:39:17;;;;;;;5.33;3.93;;;;;;;13.15;54.86;99992.85;643210;221;28982;-74
2021/05/07 10:41:45;;;;;;;4.30;3.70;;;;;;;13.65;53.72;99998.25;635823;225;24802;-72
2021/05/07 10:44:14;;;;;;;4.50;3.63;;;;;;;13.47;51.06;99981.51;639194;223;27994;-72
2021/05/07 10:46:41;;;;;;;6.00;3.77;;;;;;;14.09;54.43;99986.76;636809;225;23800;-72
2021/05/07 10:49:09;;;;;;;5.10;3.70;;;;;;;13.71;52.72;99983.70;648496;220;23756;-73
2021/05/07 10:51:37;;;;;;;5.10;4.30;;;;;;;13.24;54.13;99991.89;650851;220;24720;-72
2021/05/07 10:54:06;;;;;;;4.00;3.40;;;;;;;12.52;54.42;100004.48;634378;225;25996;-73
2021/05/07 10:56:35;;;;;;;4.90;3.80;;;;;;;11.90;54.13;100015.31;645650;220;43257;-72
2021/05/07 10:59:12;;;;;;;5.83;3.90;;;;;;;11.53;55.83;100042.48;636627;224;23680;-73
2021/05/07 11:01:40;;;;;;;5.30;3.40;;;;;;;10.64;61.34;100093.42;639052;224;24785;-72
2021/05/07 11:04:09;;;;;;;4.73;3.60;;;;;;;9.77;69.98;100136.75;642775;221;24845;-72
2021/05/07 11:06:38;;;;;;;6.67;4.30;;;;;;;9.61;71.93;100179.86;636415;221;42863;-72
2021/05/07 11:09:14;;;;;;;4.83;3.77;;;;;;;9.41;74.28;100203.23;639281;221;23916;-72
2021/05/07 11:11:42;;;;;;;5.00;3.90;;;;;;;9.04;80.00;100239.91;643710;221;24805;-72
2021/05/07 11:14:10;;;;;;;6.00;4.30;;;;;;;9.27;79.68;100248.23;646622;217;26957;-72
2021/05/07 11:16:39;;;;;;;6.80;4.97;;;;;;;9.83;80.65;100254.84;634571;225;24777;-72
2021/05/07 11:19:07;;;;;;;5.03;4.53;;;;;;;10.09;78.09;100248.09;645663;221;24962;-71
2021/05/07 11:21:35;;;;;;;5.60;4.80;;;;;;;10.62;75.95;100241.01;640614;221;32673;-72
2021/05/07 11:24:05;;;;;;;5.33;4.40;;;;;;;11.35;73.07;100231.02;646531;221;24840;-72
2021/05/07 11:26:36;;;;;;;5.83;4.73;;;;;;;12.08;70.88;100216.73;633387;225;24781;-73
2021/05/07 11:29:04;;;;;;;4.57;4.17;;;;;;;12.75;71.24;100214.25;636775;225;23884;-71
2021/05/07 11:31:32;;;;;;;6.50;4.20;;;;;;;12.91;70.08;100203.03;637141;225;24797;-73
2021/05/07 11:34:00;;;;;;;4.20;3.80;;;;;;;13.12;64.81;100173.38;644058;221;23866;-72
2021/05/07 11:36:28;;;;;;;5.15;3.90;;;;;;;13.25;64.28;100175.04;636217;221;32705;-71
2021/05/07 11:38:56;;;;;;;7.30;4.23;;;;;;;12.81;68.91;100199.27;640409;221;22719;-72
2021/05/07 11:41:24;;;;;;;4.47;4.07;;;;;;;13.04;67.77;100193.75;642929;221;24809;-71
2021/05/07 11:43:52;;;;;;;3.97;3.57;;;;;;;12.95;68.88;100209.09;641878;221;24853;-72